^^
Meteo Knjazevac Station Historical Data
Daily Summary for December 17, 2021 Units:  Metric    English   Both
Daily Weekly Monthly Yearly Custom
  High: Low: Average:
Temperature: 4.8 °C 3 °C 3.5 °C
Dew Point: 4.2 °C 2.5 °C 3.2 °C
Humidity: 99% 94% 98%
Wind Speed: 14.5km/h 0km/h 3.2km/h
Wind Gust: 22.5km/h - -
Wind- - SSW
Pressure: 1027.7 hPa 1025.3 hPa -
Precipitation: 2.03 mm    
Historical Graphs
 
 
Tabular Data for December 17, 2021
Time Temperature Dew Point Pressure Wind Wind Speed Wind Gust Humidity Rainfall Rate (Hourly) solar Conditions
00:00 3.2 °C 2.5 °C 1027.7 hPa SW 1.6 km/h 6.4 km/h 95% 0 mm 0 W/m2
00:10 3.2 °C 2.5 °C 1027.3 hPa SW 1.6 km/h 4.8 km/h 95% 0 mm 0 W/m2
00:20 3.3 °C 2.5 °C 1027.3 hPa SW 3.2 km/h 4.8 km/h 95% 0 mm 0 W/m2
00:30 3.3 °C 2.6 °C 1027.3 hPa WSW 1.6 km/h 4.8 km/h 95% 0 mm 0 W/m2
00:40 3.3 °C 2.6 °C 1027.3 hPa WSW 1.6 km/h 4.8 km/h 95% 0 mm 0 W/m2
00:50 3.4 °C 2.7 °C 1027 hPa North 1.6 km/h 4.8 km/h 95% 0 mm 0 W/m2
01:00 3.4 °C 2.5 °C 1027.3 hPa SSE 1.6 km/h 6.4 km/h 94% 0 mm 0 W/m2
01:10 3.5 °C 2.6 °C 1027 hPa NE 1.6 km/h 8 km/h 94% 0 mm 0 W/m2
01:20 3.5 °C 2.8 °C 1027 hPa West 3.2 km/h 4.8 km/h 95% 0 mm 0 W/m2
01:30 3.5 °C 2.8 °C 1027 hPa South 1.6 km/h 4.8 km/h 95% 0 mm 0 W/m2
01:40 3.6 °C 2.9 °C 1027 hPa West 1.6 km/h 4.8 km/h 95% 0 mm 0 W/m2
01:50 3.6 °C 2.9 °C 1027 hPa WSW 1.6 km/h 8 km/h 95% 0 mm 0 W/m2
02:00 3.6 °C 2.9 °C 1027.3 hPa West 1.6 km/h 6.4 km/h 95% 0 mm 0 W/m2
02:10 3.6 °C 3 °C 1027.3 hPa Calm   3.2 km/h 96% 0 mm 0 W/m2
02:20 3.6 °C 3 °C 1027 hPa West 1.6 km/h 4.8 km/h 96% 0.25 mm 0 W/m2
02:30 3.6 °C 3.3 °C 1027 hPa SW 4.8 km/h 9.7 km/h 98% 0.25 mm 0 W/m2
02:40 3.6 °C 3.3 °C 1027 hPa WSW 4.8 km/h 12.9 km/h 98% 0 mm 0 W/m2
02:50 3.6 °C 3.3 °C 1027 hPa WSW 1.6 km/h 8 km/h 98% 0 mm 0 W/m2
03:00 3.6 °C 3.4 °C 1027 hPa West 1.6 km/h 4.8 km/h 99% 0 mm 0 W/m2
03:10 3.5 °C 3.3 °C 1027 hPa NNW 1.6 km/h 3.2 km/h 99% 0 mm 0 W/m2
03:20 3.4 °C 3.3 °C 1026.6 hPa SSE 3.2 km/h 6.4 km/h 99% 0 mm 0 W/m2
03:30 3.3 °C 3.2 °C 1026.6 hPa Calm   4.8 km/h 99% 0 mm 0 W/m2
03:40 3.3 °C 3.2 °C 1026.6 hPa Calm   3.2 km/h 99% 0 mm 0 W/m2
03:50 3.2 °C 3.1 °C 1026.6 hPa Calm   3.2 km/h 99% 0 mm 0 W/m2
04:00 3.2 °C 3.1 °C 1026.3 hPa Calm   3.2 km/h 99% 0 mm 0 W/m2
04:10 3.2 °C 3 °C 1026.3 hPa SW 1.6 km/h 6.4 km/h 99% 0 mm 0 W/m2
04:20 3.1 °C 2.9 °C 1026.3 hPa ENE 3.2 km/h 6.4 km/h 99% 0 mm 0 W/m2
04:30 3.1 °C 2.9 °C 1026.3 hPa ENE 1.6 km/h 6.4 km/h 99% 0 mm 0 W/m2
04:40 3.1 °C 2.9 °C 1026.3 hPa SSW 1.6 km/h 6.4 km/h 99% 0 mm 0 W/m2
04:50 3 °C 2.8 °C 1026.3 hPa South 1.6 km/h 3.2 km/h 99% 0 mm 0 W/m2
05:00 3 °C 2.8 °C 1026.3 hPa NE 1.6 km/h 4.8 km/h 99% 0 mm 0 W/m2
05:10 3 °C 2.8 °C 1026.3 hPa NE 1.6 km/h 4.8 km/h 99% 0 mm 0 W/m2
05:20 3 °C 2.8 °C 1026.3 hPa Calm   6.4 km/h 99% 0 mm 0 W/m2
05:30 3 °C 2.8 °C 1026 hPa SE 3.2 km/h 6.4 km/h 99% 0 mm 0 W/m2
05:40 3.1 °C 2.9 °C 1026.3 hPa NE 1.6 km/h 6.4 km/h 99% 0 mm 0 W/m2
05:50 3 °C 2.8 °C 1026 hPa North 1.6 km/h 8 km/h 99% 0 mm 0 W/m2
06:00 3.1 °C 2.9 °C 1026.3 hPa Calm   6.4 km/h 99% 0 mm 0 W/m2
06:10 3.2 °C 3.1 °C 1026 hPa SSE 1.6 km/h 4.8 km/h 99% 0 mm 0 W/m2
06:20 3.2 °C 3.1 °C 1026.3 hPa NE 1.6 km/h 4.8 km/h 99% 0 mm 0 W/m2
06:30 3.2 °C 3.1 °C 1026.3 hPa NNE 1.6 km/h 6.4 km/h 99% 1.02 mm 0 W/m2
06:40 3.3 °C 3.2 °C 1026.3 hPa WSW 4.8 km/h 9.7 km/h 99% 0 mm 0 W/m2
06:50 3.4 °C 3.3 °C 1026.3 hPa SW 1.6 km/h 8 km/h 99% 0 mm 0 W/m2
07:00 3.4 °C 3.3 °C 1026.3 hPa WSW 4.8 km/h 14.5 km/h 99% 0 mm 0 W/m2
07:10 3.5 °C 3.3 °C 1026.3 hPa SW 4.8 km/h 8 km/h 99% 0 mm 2 W/m2
07:20 3.7 °C 3.6 °C 1026.3 hPa West 8 km/h 22.5 km/h 99% 0 mm 6 W/m2
07:30 3.9 °C 3.8 °C 1026 hPa WSW 11.3 km/h 22.5 km/h 99% 0 mm 12 W/m2
07:40 4.1 °C 3.9 °C 1026 hPa West 9.7 km/h 20.9 km/h 99% 0 mm 17 W/m2
07:50 4.2 °C 3.9 °C 1026 hPa WSW 12.9 km/h 22.5 km/h 98% 0 mm 23 W/m2
08:00 4.3 °C 4 °C 1026 hPa WSW 8 km/h 20.9 km/h 98% 0 mm 30 W/m2
08:10 4.5 °C 3.9 °C 1026 hPa WSW 3.2 km/h 11.3 km/h 96% 0 mm 92 W/m2
08:20 4.6 °C 4 °C 1026 hPa SW 3.2 km/h 11.3 km/h 96% 0 mm 51 W/m2
08:30 4.7 °C 4.1 °C 1025.6 hPa SW 9.7 km/h 17.7 km/h 96% 0 mm 24 W/m2
08:40 4.8 °C 4.2 °C 1025.6 hPa WSW 9.7 km/h 19.3 km/h 96% 0 mm 36 W/m2
08:50 4.8 °C 4.1 °C 1025.3 hPa WSW 14.5 km/h 20.9 km/h 95% 0 mm 47 W/m2
Knjazevac, Serbia
Compliments of Weather Underground - 2 mb